sensor_id;sensor_type;location;lat;lon;timestamp;pressure;altitude;pressure_sealevel;temperature;humidity
25759;BME280;13604;52.496;13.456;2023-04-16T00:01:10;101058.53;;;8.71;100.00
25759;BME280;13604;52.496;13.456;2023-04-16T00:03:36;101037.16;;;8.60;100.00
25759;BME280;13604;52.496;13.456;2023-04-16T00:06:01;101031.88;;;8.44;100.00
25759;BME280;13604;52.496;13.456;2023-04-16T00:08:28;101033.03;;;8.49;100.00
25759;BME280;13604;52.496;13.456;2023-04-16T00:10:53;101057.09;;;8.61;100.00
25759;BME280;13604;52.496;13.456;2023-04-16T00:13:19;101053.97;;;8.67;100.00
25759;BME280;13604;52.496;13.456;2023-04-16T00:15:44;101072.16;;;8.67;100.00
25759;BME280;13604;52.496;13.456;2023-04-16T00:18:10;101042.88;;;8.55;100.00
25759;BME280;13604;52.496;13.456;2023-04-16T00:20:35;101065.81;;;8.62;100.00
25759;BME280;13604;52.496;13.456;2023-04-16T00:23:00;101035.63;;;8.49;100.00
25759;BME280;13604;52.496;13.456;2023-04-16T00:25:26;101063.91;;;8.74;100.00
25759;BME280;13604;52.496;13.456;2023-04-16T00:27:51;101073.13;;;8.69;100.00
25759;BME280;13604;52.496;13.456;2023-04-16T00:30:16;101054.22;;;8.57;100.00
25759;BME280;13604;52.496;13.456;2023-04-16T00:32:41;101052.38;;;8.54;100.00
25759;BME280;13604;52.496;13.456;2023-04-16T00:35:07;101039.38;;;8.54;100.00
25759;BME280;13604;52.496;13.456;2023-04-16T00:37:32;101038.63;;;8.42;100.00
25759;BME280;13604;52.496;13.456;2023-04-16T00:39:57;101079.84;;;8.65;100.00
25759;BME280;13604;52.496;13.456;2023-04-16T00:42:23;101071.00;;;8.62;100.00
25759;BME280;13604;52.496;13.456;2023-04-16T00:44:48;101047.34;;;8.57;100.00
25759;BME280;13604;52.496;13.456;2023-04-16T00:47:13;101050.84;;;8.58;100.00
25759;BME280;13604;52.496;13.456;2023-04-16T00:49:39;101056.91;;;8.58;100.00
25759;BME280;13604;52.496;13.456;2023-04-16T00:52:05;101048.63;;;8.49;100.00
25759;BME280;13604;52.496;13.456;2023-04-16T00:54:31;101072.34;;;8.70;100.00
25759;BME280;13604;52.496;13.456;2023-04-16T00:56:58;101073.41;;;8.74;100.00
25759;BME280;13604;52.496;13.456;2023-04-16T00:59:23;101051.81;;;8.60;100.00
25759;BME280;13604;52.496;13.456;2023-04-16T01:01:48;101050.22;;;8.62;100.00
25759;BME280;13604;52.496;13.456;2023-04-16T01:04:14;101070.72;;;8.72;100.00
25759;BME280;13604;52.496;13.456;2023-04-16T01:06:39;101044.41;;;8.51;100.00
25759;BME280;13604;52.496;13.456;2023-04-16T01:09:05;101038.22;;;8.49;100.00
25759;BME280;13604;52.496;13.456;2023-04-16T01:11:30;101066.69;;;8.62;100.00
25759;BME280;13604;52.496;13.456;2023-04-16T01:13:56;101065.53;;;8.57;100.00
25759;BME280;13604;52.496;13.456;2023-04-16T01:16:21;101079.22;;;8.70;100.00
25759;BME280;13604;52.496;13.456;2023-04-16T01:18:46;101064.28;;;8.65;100.00
25759;BME280;13604;52.496;13.456;2023-04-16T01:21:11;101072.34;;;8.70;100.00
25759;BME280;13604;52.496;13.456;2023-04-16T01:23:37;101092.00;;;8.81;100.00
25759;BME280;13604;52.496;13.456;2023-04-16T01:26:02;101052.47;;;8.56;100.00
25759;BME280;13604;52.496;13.456;2023-04-16T01:28:27;101067.16;;;8.70;100.00
25759;BME280;13604;52.496;13.456;2023-04-16T01:30:53;101084.75;;;8.76;100.00
25759;BME280;13604;52.496;13.456;2023-04-16T01:33:18;101089.88;;;8.74;100.00
25759;BME280;13604;52.496;13.456;2023-04-16T01:35:43;101071.09;;;8.63;100.00
25759;BME280;13604;52.496;13.456;2023-04-16T01:38:10;101086.47;;;8.75;100.00
25759;BME280;13604;52.496;13.456;2023-04-16T01:40:36;101082.88;;;8.73;100.00
25759;BME280;13604;52.496;13.456;2023-04-16T01:43:02;101090.31;;;8.82;100.00
25759;BME280;13604;52.496;13.456;2023-04-16T01:45:28;101087.44;;;8.77;100.00
25759;BME280;13604;52.496;13.456;2023-04-16T01:47:55;101073.94;;;8.68;100.00
25759;BME280;13604;52.496;13.456;2023-04-16T01:50:20;101100.16;;;8.73;100.00
25759;BME280;13604;52.496;13.456;2023-04-16T01:52:46;101086.13;;;8.69;100.00
25759;BME280;13604;52.496;13.456;2023-04-16T01:55:11;101088.63;;;8.68;100.00
25759;BME280;13604;52.496;13.456;2023-04-16T01:57:36;101102.34;;;8.80;100.00
25759;BME280;13604;52.496;13.456;2023-04-16T02:00:03;101109.94;;;8.77;100.00
25759;BME280;13604;52.496;13.456;2023-04-16T02:02:28;101049.41;;;8.48;100.00
25759;BME280;13604;52.496;13.456;2023-04-16T02:04:54;101114.94;;;8.74;100.00
25759;BME280;13604;52.496;13.456;2023-04-16T02:07:21;101106.44;;;8.76;100.00
25759;BME280;13604;52.496;13.456;2023-04-16T02:09:46;101083.44;;;8.68;100.00
25759;BME280;13604;52.496;13.456;2023-04-16T02:12:14;101104.56;;;8.74;100.00
25759;BME280;13604;52.496;13.456;2023-04-16T02:14:39;101070.00;;;8.60;100.00
25759;BME280;13604;52.496;13.456;2023-04-16T02:17:05;101105.25;;;8.71;100.00
25759;BME280;13604;52.496;13.456;2023-04-16T02:19:30;101064.47;;;8.54;100.00
25759;BME280;13604;52.496;13.456;2023-04-16T02:21:56;101078.50;;;8.57;100.00
25759;BME280;13604;52.496;13.456;2023-04-16T02:24:21;101101.50;;;8.66;100.00
25759;BME280;13604;52.496;13.456;2023-04-16T02:26:46;101118.53;;;8.76;100.00
25759;BME280;13604;52.496;13.456;2023-04-16T02:29:12;101118.53;;;8.76;100.00
25759;BME280;13604;52.496;13.456;2023-04-16T02:31:38;101085.03;;;8.51;100.00
25759;BME280;13604;52.496;13.456;2023-04-16T02:34:03;101072.75;;;8.48;100.00
25759;BME280;13604;52.496;13.456;2023-04-16T02:36:29;101110.19;;;8.66;100.00
25759;BME280;13604;52.496;13.456;2023-04-16T02:38:56;101117.00;;;8.64;100.00
25759;BME280;13604;52.496;13.456;2023-04-16T02:41:21;101101.50;;;8.51;100.00
25759;BME280;13604;52.496;13.456;2023-04-16T02:43:47;101092.09;;;8.53;100.00
25759;BME280;13604;52.496;13.456;2023-04-16T02:46:12;101106.16;;;8.57;100.00
25759;BME280;13604;52.496;13.456;2023-04-16T02:48:38;101113.16;;;8.58;100.00
25759;BME280;13604;52.496;13.456;2023-04-16T02:51:04;101129.47;;;8.70;100.00
25759;BME280;13604;52.496;13.456;2023-04-16T02:53:29;101108.75;;;8.57;100.00
25759;BME280;13604;52.496;13.456;2023-04-16T02:55:54;101119.78;;;8.53;100.00
25759;BME280;13604;52.496;13.456;2023-04-16T02:58:21;101120.47;;;8.50;100.00
25759;BME280;13604;52.496;13.456;2023-04-16T03:00:48;101130.34;;;8.56;100.00
25759;BME280;13604;52.496;13.456;2023-04-16T03:03:14;101105.22;;;8.41;100.00
25759;BME280;13604;52.496;13.456;2023-04-16T03:05:39;101129.97;;;8.50;100.00
25759;BME280;13604;52.496;13.456;2023-04-16T03:08:05;101107.53;;;8.37;100.00
25759;BME280;13604;52.496;13.456;2023-04-16T03:10:30;101119.31;;;8.45;100.00
25759;BME280;13604;52.496;13.456;2023-04-16T03:12:56;101121.00;;;8.44;100.00
25759;BME280;13604;52.496;13.456;2023-04-16T03:15:21;101117.41;;;8.42;100.00
25759;BME280;13604;52.496;13.456;2023-04-16T03:17:47;101120.13;;;8.44;100.00
25759;BME280;13604;52.496;13.456;2023-04-16T03:20:12;101138.63;;;8.50;100.00
25759;BME280;13604;52.496;13.456;2023-04-16T03:22:38;101145.44;;;8.48;100.00
25759;BME280;13604;52.496;13.456;2023-04-16T03:25:05;101133.19;;;8.32;100.00
25759;BME280;13604;52.496;13.456;2023-04-16T03:27:31;101126.66;;;8.24;100.00
25759;BME280;13604;52.496;13.456;2023-04-16T03:29:56;101138.84;;;8.25;100.00
25759;BME280;13604;52.496;13.456;2023-04-16T03:32:21;101150.97;;;8.39;100.00
25759;BME280;13604;52.496;13.456;2023-04-16T03:34:47;101130.16;;;8.24;100.00
25759;BME280;13604;52.496;13.456;2023-04-16T03:37:12;101136.63;;;8.31;100.00
25759;BME280;13604;52.496;13.456;2023-04-16T03:39:37;101127.09;;;8.17;100.00
25759;BME280;13604;52.496;13.456;2023-04-16T03:42:03;101132.09;;;8.14;100.00
25759;BME280;13604;52.496;13.456;2023-04-16T03:44:28;101157.56;;;8.34;100.00
25759;BME280;13604;52.496;13.456;2023-04-16T03:46:54;101150.81;;;8.23;100.00
25759;BME280;13604;52.496;13.456;2023-04-16T03:49:19;101134.31;;;8.07;100.00
25759;BME280;13604;52.496;13.456;2023-04-16T03:51:45;101144.19;;;8.13;100.00
25759;BME280;13604;52.496;13.456;2023-04-16T03:54:10;101128.13;;;8.05;100.00
25759;BME280;13604;52.496;13.456;2023-04-16T03:56:36;101132.81;;;8.11;100.00
25759;BME280;13604;52.496;13.456;2023-04-16T03:59:01;101178.53;;;8.24;100.00
25759;BME280;13604;52.496;13.456;2023-04-16T04:01:26;101172.28;;;8.20;100.00
25759;BME280;13604;52.496;13.456;2023-04-16T04:03:52;101154.06;;;8.05;100.00
25759;BME280;13604;52.496;13.456;2023-04-16T04:06:17;101140.72;;;7.99;100.00
25759;BME280;13604;52.496;13.456;2023-04-16T04:08:42;101167.63;;;8.15;100.00
25759;BME280;13604;52.496;13.456;2023-04-16T04:11:08;101088.75;;;7.69;100.00
25759;BME280;13604;52.496;13.456;2023-04-16T04:13:33;101169.94;;;8.10;100.00
25759;BME280;13604;52.496;13.456;2023-04-16T04:15:58;101157.50;;;8.04;100.00
25759;BME280;13604;52.496;13.456;2023-04-16T04:18:24;101176.00;;;8.10;100.00
25759;BME280;13604;52.496;13.456;2023-04-16T04:20:49;101181.09;;;8.09;100.00
25759;BME280;13604;52.496;13.456;2023-04-16T04:23:14;101199.84;;;8.18;100.00
25759;BME280;13604;52.496;13.456;2023-04-16T04:25:40;101195.28;;;8.14;100.00
25759;BME280;13604;52.496;13.456;2023-04-16T04:28:05;101167.88;;;8.04;100.00
25759;BME280;13604;52.496;13.456;2023-04-16T04:30:30;101184.28;;;8.18;100.00
25759;BME280;13604;52.496;13.456;2023-04-16T04:32:56;101194.84;;;8.21;100.00
25759;BME280;13604;52.496;13.456;2023-04-16T04:35:21;101142.31;;;7.97;100.00
25759;BME280;13604;52.496;13.456;2023-04-16T04:37:46;101190.25;;;8.17;100.00
25759;BME280;13604;52.496;13.456;2023-04-16T04:40:12;101199.88;;;8.33;100.00
25759;BME280;13604;52.496;13.456;2023-04-16T04:42:37;101184.75;;;8.26;100.00
25759;BME280;13604;52.496;13.456;2023-04-16T04:45:03;101169.69;;;8.20;100.00
25759;BME280;13604;52.496;13.456;2023-04-16T04:47:28;101170.50;;;8.19;100.00
25759;BME280;13604;52.496;13.456;2023-04-16T04:49:54;101213.44;;;8.42;100.00
25759;BME280;13604;52.496;13.456;2023-04-16T04:52:19;101198.63;;;8.26;100.00
25759;BME280;13604;52.496;13.456;2023-04-16T04:54:44;101185.06;;;8.17;100.00
25759;BME280;13604;52.496;13.456;2023-04-16T04:57:10;101188.47;;;8.16;100.00
25759;BME280;13604;52.496;13.456;2023-04-16T04:59:35;101208.91;;;8.25;100.00
25759;BME280;13604;52.496;13.456;2023-04-16T05:02:00;101217.75;;;8.28;100.00
25759;BME280;13604;52.496;13.456;2023-04-16T05:04:27;101225.19;;;8.22;100.00
25759;BME280;13604;52.496;13.456;2023-04-16T05:06:52;101230.25;;;8.34;100.00
25759;BME280;13604;52.496;13.456;2023-04-16T05:09:18;101201.75;;;8.21;100.00
25759;BME280;13604;52.496;13.456;2023-04-16T05:11:43;101206.63;;;8.16;100.00
25759;BME280;13604;52.496;13.456;2023-04-16T05:14:08;101252.78;;;8.35;100.00
25759;BME280;13604;52.496;13.456;2023-04-16T05:16:35;101246.78;;;8.36;100.00
25759;BME280;13604;52.496;13.456;2023-04-16T05:19:00;101229.84;;;8.28;100.00
25759;BME280;13604;52.496;13.456;2023-04-16T05:21:26;101232.16;;;8.23;100.00
25759;BME280;13604;52.496;13.456;2023-04-16T05:23:51;101250.81;;;8.31;100.00
25759;BME280;13604;52.496;13.456;2023-04-16T05:26:16;101231.31;;;8.09;100.00
25759;BME280;13604;52.496;13.456;2023-04-16T05:28:42;101228.19;;;8.15;100.00
25759;BME280;13604;52.496;13.456;2023-04-16T05:31:08;101229.78;;;8.13;100.00
25759;BME280;13604;52.496;13.456;2023-04-16T05:33:33;101243.25;;;8.21;100.00
25759;BME280;13604;52.496;13.456;2023-04-16T05:35:59;101241.16;;;8.15;100.00
25759;BME280;13604;52.496;13.456;2023-04-16T05:38:24;101210.84;;;8.01;100.00
25759;BME280;13604;52.496;13.456;2023-04-16T05:40:49;101227.63;;;8.06;100.00
25759;BME280;13604;52.496;13.456;2023-04-16T05:43:15;101243.66;;;8.14;100.00
25759;BME280;13604;52.496;13.456;2023-04-16T05:45:40;101232.09;;;8.08;100.00
25759;BME280;13604;52.496;13.456;2023-04-16T05:48:09;101273.28;;;8.31;100.00
25759;BME280;13604;52.496;13.456;2023-04-16T05:50:35;101252.56;;;8.32;100.00
25759;BME280;13604;52.496;13.456;2023-04-16T05:53:05;101231.16;;;8.21;100.00
25759;BME280;13604;52.496;13.456;2023-04-16T05:55:31;101272.22;;;8.42;100.00
25759;BME280;13604;52.496;13.456;2023-04-16T05:57:56;101223.97;;;8.17;100.00
25759;BME280;13604;52.496;13.456;2023-04-16T06:00:22;101260.47;;;8.47;100.00
25759;BME280;13604;52.496;13.456;2023-04-16T06:02:47;101269.94;;;8.46;100.00
25759;BME280;13604;52.496;13.456;2023-04-16T06:05:12;101277.22;;;8.52;100.00
25759;BME280;13604;52.496;13.456;2023-04-16T06:07:38;101277.94;;;8.50;100.00
25759;BME280;13604;52.496;13.456;2023-04-16T06:10:03;101252.97;;;8.38;100.00
25759;BME280;13604;52.496;13.456;2023-04-16T06:12:29;101279.19;;;8.56;100.00
25759;BME280;13604;52.496;13.456;2023-04-16T06:14:55;101259.66;;;8.48;100.00
25759;BME280;13604;52.496;13.456;2023-04-16T06:17:20;101253.69;;;8.36;100.00
25759;BME280;13604;52.496;13.456;2023-04-16T06:19:45;101293.06;;;8.57;100.00
25759;BME280;13604;52.496;13.456;2023-04-16T06:22:10;101278.59;;;8.60;100.00
25759;BME280;13604;52.496;13.456;2023-04-16T06:24:36;101264.91;;;8.63;100.00
25759;BME280;13604;52.496;13.456;2023-04-16T06:27:01;101250.75;;;8.58;100.00
25759;BME280;13604;52.496;13.456;2023-04-16T06:29:27;101300.44;;;8.92;100.00
25759;BME280;13604;52.496;13.456;2023-04-16T06:31:52;101304.75;;;8.92;100.00
25759;BME280;13604;52.496;13.456;2023-04-16T06:34:18;101267.53;;;8.78;100.00
25759;BME280;13604;52.496;13.456;2023-04-16T06:36:43;101274.72;;;8.82;100.00
25759;BME280;13604;52.496;13.456;2023-04-16T06:39:08;101301.25;;;9.06;100.00
25759;BME280;13604;52.496;13.456;2023-04-16T06:41:34;101274.84;;;8.98;100.00
25759;BME280;13604;52.496;13.456;2023-04-16T06:43:59;101276.09;;;9.05;100.00
25759;BME280;13604;52.496;13.456;2023-04-16T06:46:24;101296.25;;;9.24;100.00
25759;BME280;13604;52.496;13.456;2023-04-16T06:48:50;101283.72;;;9.17;100.00
25759;BME280;13604;52.496;13.456;2023-04-16T06:51:15;101273.22;;;9.15;100.00
25759;BME280;13604;52.496;13.456;2023-04-16T06:53:40;101274.47;;;9.07;100.00
25759;BME280;13604;52.496;13.456;2023-04-16T06:56:06;101320.59;;;9.39;100.00
25759;BME280;13604;52.496;13.456;2023-04-16T06:58:32;101295.94;;;9.33;100.00
25759;BME280;13604;52.496;13.456;2023-04-16T07:00:57;101315.75;;;9.46;100.00
25759;BME280;13604;52.496;13.456;2023-04-16T07:03:23;101297.72;;;9.34;100.00
25759;BME280;13604;52.496;13.456;2023-04-16T07:05:48;101321.19;;;9.50;100.00
25759;BME280;13604;52.496;13.456;2023-04-16T07:08:13;101328.09;;;9.50;100.00
25759;BME280;13604;52.496;13.456;2023-04-16T07:10:39;101288.94;;;9.32;100.00
25759;BME280;13604;52.496;13.456;2023-04-16T07:13:04;101295.19;;;9.35;100.00
25759;BME280;13604;52.496;13.456;2023-04-16T07:15:29;101322.72;;;9.47;100.00
25759;BME280;13604;52.496;13.456;2023-04-16T07:17:55;101314.91;;;9.32;100.00
25759;BME280;13604;52.496;13.456;2023-04-16T07:20:20;101315.47;;;9.41;100.00
25759;BME280;13604;52.496;13.456;2023-04-16T07:22:45;101318.59;;;9.50;100.00
25759;BME280;13604;52.496;13.456;2023-04-16T07:25:11;101322.34;;;9.55;100.00
25759;BME280;13604;52.496;13.456;2023-04-16T07:27:36;101310.09;;;9.38;100.00
25759;BME280;13604;52.496;13.456;2023-04-16T07:30:01;101337.72;;;9.51;100.00
25759;BME280;13604;52.496;13.456;2023-04-16T07:32:27;101306.59;;;9.37;100.00
25759;BME280;13604;52.496;13.456;2023-04-16T07:34:52;101333.22;;;9.48;100.00
25759;BME280;13604;52.496;13.456;2023-04-16T07:37:17;101310.00;;;9.36;100.00
25759;BME280;13604;52.496;13.456;2023-04-16T07:39:42;101338.59;;;9.51;100.00
25759;BME280;13604;52.496;13.456;2023-04-16T07:42:08;101326.84;;;9.43;100.00
25759;BME280;13604;52.496;13.456;2023-04-16T07:44:33;101325.31;;;9.32;100.00
25759;BME280;13604;52.496;13.456;2023-04-16T07:46:58;101358.75;;;9.55;100.00
25759;BME280;13604;52.496;13.456;2023-04-16T07:49:24;101342.56;;;9.60;100.00
25759;BME280;13604;52.496;13.456;2023-04-16T07:51:49;101360.03;;;9.77;100.00
25759;BME280;13604;52.496;13.456;2023-04-16T07:54:15;101360.09;;;9.64;100.00
25759;BME280;13604;52.496;13.456;2023-04-16T07:56:40;101343.63;;;9.48;100.00
25759;BME280;13604;52.496;13.456;2023-04-16T07:59:05;101361.63;;;9.60;100.00
25759;BME280;13604;52.496;13.456;2023-04-16T08:01:31;101321.28;;;9.37;100.00
25759;BME280;13604;52.496;13.456;2023-04-16T08:03:56;101334.28;;;9.37;100.00
25759;BME280;13604;52.496;13.456;2023-04-16T08:06:22;101370.06;;;9.41;100.00
25759;BME280;13604;52.496;13.456;2023-04-16T08:08:47;101365.31;;;9.49;100.00
25759;BME280;13604;52.496;13.456;2023-04-16T08:11:12;101363.44;;;9.46;100.00
25759;BME280;13604;52.496;13.456;2023-04-16T08:13:38;101371.59;;;9.52;100.00
25759;BME280;13604;52.496;13.456;2023-04-16T08:16:03;101361.19;;;9.37;100.00
25759;BME280;13604;52.496;13.456;2023-04-16T08:18:28;101353.44;;;9.24;100.00
25759;BME280;13604;52.496;13.456;2023-04-16T08:20:54;101358.91;;;9.29;100.00
25759;BME280;13604;52.496;13.456;2023-04-16T08:23:19;101378.66;;;9.40;100.00
25759;BME280;13604;52.496;13.456;2023-04-16T08:25:45;101370.03;;;9.26;100.00
25759;BME280;13604;52.496;13.456;2023-04-16T08:28:10;101382.84;;;9.23;100.00
25759;BME280;13604;52.496;13.456;2023-04-16T08:30:35;101338.81;;;8.96;100.00
25759;BME280;13604;52.496;13.456;2023-04-16T08:33:00;101364.44;;;9.05;100.00
25759;BME280;13604;52.496;13.456;2023-04-16T08:35:26;101396.03;;;9.26;100.00
25759;BME280;13604;52.496;13.456;2023-04-16T08:37:51;101403.94;;;9.28;100.00
25759;BME280;13604;52.496;13.456;2023-04-16T08:40:17;101405.19;;;9.34;100.00
25759;BME280;13604;52.496;13.456;2023-04-16T08:42:52;101399.66;;;9.43;100.00
25759;BME280;13604;52.496;13.456;2023-04-16T08:45:18;101412.94;;;9.48;100.00
25759;BME280;13604;52.496;13.456;2023-04-16T08:47:45;101408.53;;;9.47;100.00
25759;BME280;13604;52.496;13.456;2023-04-16T08:50:16;101409.00;;;9.54;100.00
25759;BME280;13604;52.496;13.456;2023-04-16T08:52:49;101414.66;;;9.62;100.00
25759;BME280;13604;52.496;13.456;2023-04-16T08:55:16;101415.47;;;9.61;100.00
25759;BME280;13604;52.496;13.456;2023-04-16T08:57:47;101419.50;;;9.71;100.00
25759;BME280;13604;52.496;13.456;2023-04-16T09:00:15;101402.63;;;9.64;100.00
25759;BME280;13604;52.496;13.456;2023-04-16T09:02:41;101409.81;;;9.68;100.00
25759;BME280;13604;52.496;13.456;2023-04-16T09:05:09;101425.69;;;9.73;100.00
25759;BME280;13604;52.496;13.456;2023-04-16T09:07:35;101425.69;;;9.73;100.00
25759;BME280;13604;52.496;13.456;2023-04-16T09:10:00;101432.69;;;9.74;100.00
25759;BME280;13604;52.496;13.456;2023-04-16T09:12:27;101433.75;;;9.63;100.00
25759;BME280;13604;52.496;13.456;2023-04-16T09:14:52;101423.22;;;9.46;100.00
25759;BME280;13604;52.496;13.456;2023-04-16T09:17:18;101433.63;;;9.46;100.00
25759;BME280;13604;52.496;13.456;2023-04-16T09:19:46;101419.66;;;9.44;100.00
25759;BME280;13604;52.496;13.456;2023-04-16T09:22:12;101426.03;;;9.64;100.00
25759;BME280;13604;52.496;13.456;2023-04-16T09:24:37;101413.56;;;9.88;100.00
25759;BME280;13604;52.496;13.456;2023-04-16T09:27:03;101442.81;;;10.44;100.00
25759;BME280;13604;52.496;13.456;2023-04-16T09:29:33;101411.41;;;10.72;100.00
25759;BME280;13604;52.496;13.456;2023-04-16T09:32:06;101442.97;;;11.10;100.00
25759;BME280;13604;52.496;13.456;2023-04-16T09:34:32;101445.22;;;11.35;100.00
25759;BME280;13604;52.496;13.456;2023-04-16T09:37:16;101452.38;;;11.39;100.00
25759;BME280;13604;52.496;13.456;2023-04-16T09:39:42;101440.22;;;11.56;100.00
25759;BME280;13604;52.496;13.456;2023-04-16T09:42:08;101440.63;;;11.47;98.40
25759;BME280;13604;52.496;13.456;2023-04-16T09:44:37;101455.31;;;11.45;98.12
25759;BME280;13604;52.496;13.456;2023-04-16T09:47:07;101449.44;;;11.33;97.73
25759;BME280;13604;52.496;13.456;2023-04-16T09:49:33;101409.81;;;10.91;99.05
25759;BME280;13604;52.496;13.456;2023-04-16T09:52:00;101459.31;;;11.22;99.82
25759;BME280;13604;52.496;13.456;2023-04-16T09:54:26;101454.94;;;11.06;100.00
25759;BME280;13604;52.496;13.456;2023-04-16T09:56:55;101438.41;;;10.89;100.00
25759;BME280;13604;52.496;13.456;2023-04-16T09:59:22;101455.31;;;10.81;100.00
25759;BME280;13604;52.496;13.456;2023-04-16T10:01:48;101454.63;;;10.68;100.00
25759;BME280;13604;52.496;13.456;2023-04-16T10:04:14;101452.81;;;10.51;100.00
25759;BME280;13604;52.496;13.456;2023-04-16T10:06:40;101455.72;;;10.57;100.00
25759;BME280;13604;52.496;13.456;2023-04-16T10:09:08;101455.69;;;10.72;100.00
25759;BME280;13604;52.496;13.456;2023-04-16T10:11:34;101455.41;;;10.82;100.00
25759;BME280;13604;52.496;13.456;2023-04-16T10:14:00;101463.97;;;10.96;100.00
25759;BME280;13604;52.496;13.456;2023-04-16T10:16:26;101454.25;;;10.77;100.00
25759;BME280;13604;52.496;13.456;2023-04-16T10:18:52;101468.09;;;10.76;100.00
25759;BME280;13604;52.496;13.456;2023-04-16T10:21:18;101463.00;;;10.63;100.00
25759;BME280;13604;52.496;13.456;2023-04-16T10:23:43;101457.22;;;10.68;100.00
25759;BME280;13604;52.496;13.456;2023-04-16T10:26:09;101476.97;;;10.80;100.00
25759;BME280;13604;52.496;13.456;2023-04-16T10:28:34;101462.13;;;10.79;100.00
25759;BME280;13604;52.496;13.456;2023-04-16T10:31:02;101475.94;;;10.93;100.00
25759;BME280;13604;52.496;13.456;2023-04-16T10:33:33;101478.31;;;11.04;100.00
25759;BME280;13604;52.496;13.456;2023-04-16T10:36:14;101474.59;;;11.16;100.00
25759;BME280;13604;52.496;13.456;2023-04-16T10:38:48;101452.25;;;11.04;100.00
25759;BME280;13604;52.496;13.456;2023-04-16T10:41:14;101480.88;;;11.19;100.00
25759;BME280;13604;52.496;13.456;2023-04-16T10:43:44;101476.63;;;11.21;99.85
25759;BME280;13604;52.496;13.456;2023-04-16T10:46:29;101482.09;;;11.26;98.94
25759;BME280;13604;52.496;13.456;2023-04-16T10:48:59;101469.41;;;11.32;98.96
25759;BME280;13604;52.496;13.456;2023-04-16T10:51:34;101488.00;;;11.55;97.71
25759;BME280;13604;52.496;13.456;2023-04-16T10:56:32;101479.91;;;11.67;93.91
25759;BME280;13604;52.496;13.456;2023-04-16T10:58:58;101477.66;;;11.56;95.63
25759;BME280;13604;52.496;13.456;2023-04-16T11:03:58;101490.44;;;11.68;94.51
25759;BME280;13604;52.496;13.456;2023-04-16T11:06:25;101485.63;;;11.59;94.58
25759;BME280;13604;52.496;13.456;2023-04-16T11:08:51;101493.69;;;11.48;95.20
25759;BME280;13604;52.496;13.456;2023-04-16T11:11:17;101474.63;;;11.32;96.16
25759;BME280;13604;52.496;13.456;2023-04-16T11:13:43;101483.56;;;11.21;95.08
25759;BME280;13604;52.496;13.456;2023-04-16T11:16:10;101495.28;;;11.13;96.32
25759;BME280;13604;52.496;13.456;2023-04-16T11:18:37;101503.78;;;11.25;97.54
25759;BME280;13604;52.496;13.456;2023-04-16T11:21:11;101498.34;;;11.70;97.42
25759;BME280;13604;52.496;13.456;2023-04-16T11:23:48;101501.31;;;12.10;94.30
25759;BME280;13604;52.496;13.456;2023-04-16T11:26:22;101474.78;;;12.19;92.11
25759;BME280;13604;52.496;13.456;2023-04-16T11:28:47;101448.69;;;12.19;90.28
25759;BME280;13604;52.496;13.456;2023-04-16T11:31:13;101465.56;;;12.44;89.62
25759;BME280;13604;52.496;13.456;2023-04-16T11:33:38;101469.53;;;12.54;88.85
25759;BME280;13604;52.496;13.456;2023-04-16T11:36:04;101494.16;;;12.59;88.88
25759;BME280;13604;52.496;13.456;2023-04-16T11:38:36;101469.13;;;12.28;89.43
25759;BME280;13604;52.496;13.456;2023-04-16T11:41:02;101501.22;;;12.25;90.27
25759;BME280;13604;52.496;13.456;2023-04-16T11:43:28;101479.00;;;11.83;90.92
25759;BME280;13604;52.496;13.456;2023-04-16T11:46:01;101479.16;;;11.36;92.90
25759;BME280;13604;52.496;13.456;2023-04-16T11:48:49;101506.88;;;11.34;94.49
25759;BME280;13604;52.496;13.456;2023-04-16T11:51:15;101508.09;;;11.24;95.31
25759;BME280;13604;52.496;13.456;2023-04-16T11:53:51;101489.50;;;11.02;96.03
25759;BME280;13604;52.496;13.456;2023-04-16T11:56:25;101505.13;;;11.02;95.14
25759;BME280;13604;52.496;13.456;2023-04-16T11:59:12;101480.19;;;10.91;95.90
25759;BME280;13604;52.496;13.456;2023-04-16T12:01:39;101462.13;;;10.94;94.74
25759;BME280;13604;52.496;13.456;2023-04-16T12:04:05;101497.84;;;11.28;94.30
25759;BME280;13604;52.496;13.456;2023-04-16T12:06:31;101499.66;;;11.45;93.74
25759;BME280;13604;52.496;13.456;2023-04-16T12:08:57;101525.66;;;12.09;91.53
25759;BME280;13604;52.496;13.456;2023-04-16T12:11:37;101505.00;;;12.14;89.23
25759;BME280;13604;52.496;13.456;2023-04-16T12:14:08;101520.34;;;12.08;88.68
25759;BME280;13604;52.496;13.456;2023-04-16T12:16:34;101495.16;;;11.59;90.44
25759;BME280;13604;52.496;13.456;2023-04-16T12:19:00;101519.38;;;11.56;91.69
25759;BME280;13604;52.496;13.456;2023-04-16T12:21:43;101512.06;;;11.18;94.02
25759;BME280;13604;52.496;13.456;2023-04-16T12:24:11;101527.06;;;11.05;94.46
25759;BME280;13604;52.496;13.456;2023-04-16T12:29:23;101499.47;;;10.63;95.92
25759;BME280;13604;52.496;13.456;2023-04-16T12:31:50;101519.03;;;10.71;96.56
25759;BME280;13604;52.496;13.456;2023-04-16T12:34:15;101538.34;;;10.75;97.53
25759;BME280;13604;52.496;13.456;2023-04-16T12:36:42;101533.59;;;10.67;97.48
25759;BME280;13604;52.496;13.456;2023-04-16T12:39:08;101531.44;;;10.60;98.34
25759;BME280;13604;52.496;13.456;2023-04-16T12:41:38;101488.16;;;10.18;98.43